createdAt,value
2022-10-11T00:01:17.137Z,8.28
2022-10-11T00:03:43.517Z,8.52
2022-10-11T00:06:10.158Z,8.50
2022-10-11T00:08:36.752Z,8.43
2022-10-11T00:11:07.247Z,8.50
2022-10-11T00:13:34.545Z,8.54
2022-10-11T00:16:01.577Z,8.31
2022-10-11T00:18:28.205Z,8.26
2022-10-11T00:21:03.189Z,8.06
2022-10-11T00:23:29.599Z,7.78
2022-10-11T00:26:00.812Z,7.99
2022-10-11T00:28:27.675Z,7.70
2022-10-11T00:30:54.259Z,7.63
2022-10-11T00:33:20.830Z,7.27
2022-10-11T00:35:48.643Z,7.81
2022-10-11T00:38:15.528Z,8.14
2022-10-11T00:40:41.872Z,7.69
2022-10-11T00:43:24.471Z,7.81
2022-10-11T00:45:56.808Z,7.69
2022-10-11T00:48:27.589Z,7.37
2022-10-11T00:50:57.337Z,7.77
2022-10-11T00:53:24.474Z,7.71
2022-10-11T00:55:58.964Z,8.03
2022-10-11T00:58:25.668Z,8.15
2022-10-11T01:00:53.240Z,7.91
2022-10-11T01:03:22.889Z,8.05
2022-10-11T01:05:49.542Z,8.17
2022-10-11T01:08:16.245Z,8.27
2022-10-11T01:10:42.629Z,7.90
2022-10-11T01:13:34.997Z,8.14
2022-10-11T01:16:14.188Z,8.23
2022-10-11T01:19:22.128Z,7.98
2022-10-11T01:21:57.675Z,8.03
2022-10-11T01:25:09.192Z,8.30
2022-10-11T01:28:02.021Z,8.16
2022-10-11T01:30:36.989Z,8.29
2022-10-11T01:33:35.274Z,8.20
2022-10-11T01:36:14.200Z,7.84
2022-10-11T01:39:06.705Z,8.18
2022-10-11T01:41:46.223Z,7.75
2022-10-11T01:44:13.488Z,7.46
2022-10-11T01:46:41.361Z,7.59
2022-10-11T01:49:07.837Z,7.25
2022-10-11T01:51:47.455Z,7.18
2022-10-11T01:55:08.643Z,7.51
2022-10-11T01:57:48.608Z,6.96
2022-10-11T02:00:20.794Z,7.16
2022-10-11T02:03:06.234Z,6.91
2022-10-11T02:05:56.252Z,7.02
2022-10-11T02:08:33.746Z,6.89
2022-10-11T02:11:22.086Z,7.24
2022-10-11T02:13:59.801Z,6.86
2022-10-11T02:16:36.808Z,7.17
2022-10-11T02:19:06.385Z,7.35
2022-10-11T02:21:36.119Z,7.42
2022-10-11T02:24:09.076Z,7.41
2022-10-11T02:26:39.175Z,7.26
2022-10-11T02:29:09.741Z,7.09
2022-10-11T02:31:37.145Z,7.49
2022-10-11T02:34:14.748Z,7.42
2022-10-11T02:36:51.033Z,7.31
2022-10-11T02:39:26.476Z,7.10
2022-10-11T02:41:56.465Z,6.98
2022-10-11T02:44:31.888Z,7.18
2022-10-11T02:47:00.226Z,6.85
2022-10-11T02:49:29.382Z,6.85
2022-10-11T02:51:56.828Z,6.79
2022-10-11T02:54:24.771Z,6.84
2022-10-11T02:56:51.674Z,6.78
2022-10-11T02:59:18.392Z,6.85
2022-10-11T03:01:44.863Z,6.83
2022-10-11T03:04:11.299Z,6.65
2022-10-11T03:06:37.710Z,6.41
2022-10-11T03:09:04.312Z,6.48
2022-10-11T03:11:30.657Z,6.45
2022-10-11T03:13:57.055Z,6.48
2022-10-11T03:16:23.396Z,6.45
2022-10-11T03:18:49.908Z,6.62
2022-10-11T03:21:16.294Z,7.13
2022-10-11T03:23:42.747Z,6.92
2022-10-11T03:26:09.606Z,6.64
2022-10-11T03:28:36.479Z,6.77
2022-10-11T03:31:03.288Z,6.64
2022-10-11T03:33:29.693Z,6.95
2022-10-11T03:35:56.109Z,6.87
2022-10-11T03:38:23.028Z,7.16
2022-10-11T03:40:49.390Z,6.94
2022-10-11T03:43:16.225Z,6.70
2022-10-11T03:45:42.645Z,6.50
2022-10-11T03:48:09.583Z,6.40
2022-10-11T03:50:36.666Z,6.35
2022-10-11T03:53:03.745Z,6.27
2022-10-11T03:55:30.114Z,6.28
2022-10-11T03:57:56.741Z,6.14
2022-10-11T04:00:23.311Z,6.17
2022-10-11T04:02:49.719Z,6.30
2022-10-11T04:05:16.448Z,6.25
2022-10-11T04:07:43.164Z,6.35
2022-10-11T04:10:09.744Z,6.92
2022-10-11T04:12:38.417Z,6.60
2022-10-11T04:15:06.504Z,6.76
2022-10-11T04:17:33.065Z,6.58
2022-10-11T04:19:59.428Z,6.74
2022-10-11T04:22:25.804Z,7.01
2022-10-11T04:24:52.123Z,6.82
2022-10-11T04:27:18.691Z,7.09
2022-10-11T04:29:45.014Z,7.24
2022-10-11T04:32:11.657Z,6.83
2022-10-11T04:34:38.163Z,6.54
2022-10-11T04:37:04.684Z,6.48
2022-10-11T04:39:31.021Z,6.74
2022-10-11T04:41:57.411Z,6.70
2022-10-11T04:44:23.737Z,6.50
2022-10-11T04:46:50.292Z,6.84
2022-10-11T04:49:16.619Z,6.47
2022-10-11T04:51:42.991Z,7.06
2022-10-11T04:54:09.344Z,6.98
2022-10-11T04:56:35.779Z,6.72
2022-10-11T04:59:02.114Z,6.58
2022-10-11T05:01:28.857Z,6.56
2022-10-11T05:03:55.185Z,6.50
2022-10-11T05:06:21.624Z,6.13
2022-10-11T05:08:47.934Z,6.37
2022-10-11T05:11:17.004Z,6.23
2022-10-11T05:13:44.888Z,6.12
2022-10-11T05:16:12.703Z,5.84
2022-10-11T05:18:40.229Z,6.39
2022-10-11T05:21:16.013Z,6.03
2022-10-11T05:23:42.676Z,5.80
2022-10-11T05:26:09.528Z,5.82
2022-10-11T05:28:36.630Z,6.00
2022-10-11T05:31:03.660Z,6.15
2022-10-11T05:33:31.179Z,6.03
2022-10-11T05:35:57.593Z,5.99
2022-10-11T05:38:24.421Z,5.88
2022-10-11T05:40:51.236Z,6.13
2022-10-11T05:43:17.997Z,5.89
2022-10-11T05:45:44.757Z,6.14
2022-10-11T05:48:11.369Z,6.00
2022-10-11T05:50:38.683Z,6.08
2022-10-11T05:53:05.800Z,6.29
2022-10-11T05:55:39.460Z,6.75
2022-10-11T05:58:07.295Z,6.58
2022-10-11T06:00:40.113Z,6.63
2022-10-11T06:03:08.271Z,6.88
2022-10-11T06:05:35.585Z,7.05
2022-10-11T06:08:03.548Z,7.03
2022-10-11T06:10:29.914Z,6.85
2022-10-11T06:12:56.350Z,6.74
2022-10-11T06:15:22.717Z,6.62
2022-10-11T06:17:49.106Z,6.74
2022-10-11T06:20:15.703Z,6.75
2022-10-11T06:22:42.653Z,6.55
2022-10-11T06:25:09.367Z,6.40
2022-10-11T06:27:35.958Z,6.40
2022-10-11T06:30:03.034Z,6.85
2022-10-11T06:32:29.426Z,6.74
2022-10-11T06:34:55.771Z,6.80
2022-10-11T06:37:22.194Z,6.65
2022-10-11T06:39:50.277Z,6.96
2022-10-11T06:42:16.791Z,7.12
2022-10-11T06:44:43.164Z,6.89
2022-10-11T06:47:09.651Z,6.99
2022-10-11T06:49:36.013Z,6.73
2022-10-11T06:52:02.371Z,7.06
2022-10-11T06:54:28.768Z,7.21
2022-10-11T06:56:55.192Z,7.17
2022-10-11T06:59:21.526Z,7.17
2022-10-11T07:01:48.060Z,7.35
2022-10-11T07:04:14.391Z,7.31
2022-10-11T07:06:41.455Z,7.34
2022-10-11T07:09:08.623Z,7.39
2022-10-11T07:11:35.546Z,7.31
2022-10-11T07:14:07.439Z,7.30
2022-10-11T07:16:37.357Z,7.36
2022-10-11T07:19:06.021Z,7.35
2022-10-11T07:21:34.088Z,7.44
2022-10-11T07:24:01.456Z,7.45
2022-10-11T07:26:31.346Z,7.53
2022-10-11T07:29:00.567Z,7.55
2022-10-11T07:31:27.242Z,7.45
2022-10-11T07:33:53.977Z,7.65
2022-10-11T07:36:20.509Z,7.65
2022-10-11T07:38:47.589Z,7.69
2022-10-11T07:41:14.668Z,7.84
2022-10-11T07:43:43.328Z,7.96
2022-10-11T07:46:11.346Z,8.02
2022-10-11T07:48:38.755Z,8.03
2022-10-11T07:51:20.464Z,8.04
2022-10-11T07:53:49.049Z,7.98
2022-10-11T07:56:18.595Z,8.08
2022-10-11T07:58:50.292Z,8.09
2022-10-11T08:01:17.430Z,8.12
2022-10-11T08:03:43.923Z,8.11
2022-10-11T08:06:14.166Z,8.25
2022-10-11T08:08:40.501Z,8.40
2022-10-11T08:11:07.531Z,8.43
2022-10-11T08:13:36.811Z,8.51
2022-10-11T08:16:10.514Z,8.56
2022-10-11T08:18:40.097Z,8.49
2022-10-11T08:21:09.187Z,8.54
2022-10-11T08:23:36.032Z,8.57
2022-10-11T08:26:02.985Z,8.65
2022-10-11T08:28:29.830Z,8.71
2022-10-11T08:30:56.446Z,8.81
2022-10-11T08:33:24.210Z,8.82
2022-10-11T08:35:51.800Z,8.84
2022-10-11T08:38:19.369Z,8.94
2022-10-11T08:40:55.602Z,9.09
2022-10-11T08:43:29.333Z,8.97
2022-10-11T08:45:59.722Z,8.96
2022-10-11T08:48:34.470Z,8.99
2022-10-11T08:51:01.305Z,9.19
2022-10-11T08:53:45.941Z,9.19
2022-10-11T08:56:14.694Z,9.27
2022-10-11T08:58:52.108Z,9.34
2022-10-11T09:01:23.860Z,9.43
2022-10-11T09:03:51.626Z,9.44
2022-10-11T09:06:24.182Z,9.49
2022-10-11T09:09:12.471Z,9.58
2022-10-11T09:11:47.276Z,9.64
2022-10-11T09:14:41.699Z,9.66
2022-10-11T09:17:25.421Z,9.75
2022-10-11T09:20:03.675Z,9.80
2022-10-11T09:22:59.558Z,9.91
2022-10-11T09:25:48.099Z,9.96
2022-10-11T09:28:28.697Z,10.03
2022-10-11T09:30:57.998Z,10.14
2022-10-11T09:33:41.125Z,10.29
2022-10-11T09:36:28.772Z,10.42
2022-10-11T09:39:13.924Z,10.61
2022-10-11T09:41:56.269Z,10.88
2022-10-11T09:44:25.852Z,11.07
2022-10-11T09:46:54.979Z,11.17
2022-10-11T09:49:25.319Z,11.27
2022-10-11T09:51:57.831Z,11.48
2022-10-11T09:54:38.857Z,11.60
2022-10-11T09:57:05.571Z,11.71
2022-10-11T09:59:34.988Z,11.76
2022-10-11T10:02:13.514Z,11.77
2022-10-11T10:05:00.745Z,11.83
2022-10-11T10:07:28.973Z,11.97
2022-10-11T10:09:55.550Z,11.92
2022-10-11T10:12:26.036Z,11.93
2022-10-11T10:15:04.786Z,12.07
2022-10-11T10:17:31.773Z,12.20
2022-10-11T10:20:00.486Z,12.44
2022-10-11T10:22:30.640Z,12.61
2022-10-11T10:24:59.536Z,12.70
2022-10-11T10:27:28.576Z,12.70
2022-10-11T10:30:15.824Z,12.87
2022-10-11T10:32:52.122Z,12.71
2022-10-11T10:35:49.354Z,12.74
2022-10-11T10:38:26.405Z,13.03
2022-10-11T10:40:58.902Z,13.02
2022-10-11T10:43:32.003Z,12.74
2022-10-11T10:46:16.708Z,12.75
2022-10-11T10:51:52.752Z,12.70
2022-10-11T10:54:40.558Z,12.83
2022-10-11T10:57:23.224Z,12.85
2022-10-11T11:00:19.497Z,12.87
2022-10-11T11:03:05.725Z,12.75
2022-10-11T11:05:41.223Z,12.67
2022-10-11T11:08:19.672Z,12.75
2022-10-11T11:11:28.041Z,12.77
2022-10-11T11:14:15.667Z,12.86
2022-10-11T11:17:12.638Z,12.75
2022-10-11T11:20:00.415Z,12.58
2022-10-11T11:22:55.903Z,12.67
2022-10-11T11:25:30.642Z,12.77
2022-10-11T11:28:18.309Z,12.65
2022-10-11T11:31:10.078Z,12.67
2022-10-11T11:33:48.775Z,12.72
2022-10-11T11:36:42.306Z,12.89
2022-10-11T11:39:19.189Z,12.79
2022-10-11T11:41:53.600Z,12.80
2022-10-11T11:44:28.046Z,12.71
2022-10-11T11:47:06.572Z,12.78
2022-10-11T11:49:39.458Z,12.59
2022-10-11T11:52:12.778Z,12.54
2022-10-11T11:54:54.709Z,12.55
2022-10-11T11:57:46.003Z,12.57
2022-10-11T12:00:19.942Z,12.48
2022-10-11T12:03:00.269Z,12.48
2022-10-11T12:05:31.981Z,12.45
2022-10-11T12:08:08.319Z,12.35
2022-10-11T12:10:54.455Z,12.39
2022-10-11T12:13:31.171Z,12.34
2022-10-11T12:16:04.475Z,12.34
2022-10-11T12:18:32.325Z,12.41
2022-10-11T12:21:08.418Z,12.42
2022-10-11T12:23:41.465Z,12.42
2022-10-11T12:26:41.192Z,12.54
2022-10-11T12:29:40.748Z,12.59
2022-10-11T12:32:07.005Z,12.55
2022-10-11T12:34:42.755Z,12.69
2022-10-11T12:37:18.673Z,13.22
2022-10-11T12:39:59.600Z,13.08
2022-10-11T12:42:36.721Z,13.15
2022-10-11T12:45:12.251Z,13.86
2022-10-11T12:47:43.300Z,14.16
2022-10-11T12:50:19.921Z,14.88
2022-10-11T12:52:55.360Z,15.42
2022-10-11T12:55:35.109Z,15.40
2022-10-11T12:58:21.520Z,15.78
2022-10-11T13:00:51.420Z,15.82
2022-10-11T13:03:32.653Z,15.85
2022-10-11T13:06:01.883Z,16.07
2022-10-11T13:08:37.391Z,16.26
2022-10-11T13:11:10.206Z,15.83
2022-10-11T13:13:44.466Z,15.96
2022-10-11T13:16:19.271Z,15.88
2022-10-11T13:18:48.805Z,15.68
2022-10-11T13:21:28.160Z,16.05
2022-10-11T13:23:58.037Z,16.26
2022-10-11T13:26:26.739Z,16.19
2022-10-11T13:28:53.383Z,15.95
2022-10-11T13:31:19.834Z,16.26
2022-10-11T13:33:46.501Z,16.18
2022-10-11T13:36:17.722Z,16.41
2022-10-11T13:38:57.981Z,16.88
2022-10-11T13:41:29.716Z,16.57
2022-10-11T13:43:58.086Z,16.04
2022-10-11T13:46:27.011Z,15.84
2022-10-11T13:49:06.945Z,15.80
2022-10-11T13:51:36.996Z,15.42
2022-10-11T13:54:13.157Z,15.33
2022-10-11T13:56:49.735Z,14.85
2022-10-11T13:59:22.713Z,14.86
2022-10-11T14:01:50.872Z,14.86
2022-10-11T14:04:17.541Z,14.83
2022-10-11T14:06:58.242Z,14.52
2022-10-11T14:09:27.782Z,14.21
2022-10-11T14:11:55.051Z,14.15
2022-10-11T14:14:30.272Z,13.95
2022-10-11T14:16:59.097Z,14.08
2022-10-11T14:19:25.888Z,13.79
2022-10-11T14:21:53.265Z,13.77
2022-10-11T14:24:20.623Z,13.88
2022-10-11T14:26:49.951Z,13.66
2022-10-11T14:29:24.909Z,13.79
2022-10-11T14:31:52.357Z,13.68
2022-10-11T14:34:21.994Z,13.58
2022-10-11T14:36:49.575Z,13.73
2022-10-11T14:39:27.641Z,13.85
2022-10-11T14:41:54.367Z,13.76
2022-10-11T14:44:21.968Z,13.77
2022-10-11T14:46:50.262Z,13.72
2022-10-11T14:49:19.565Z,13.55
2022-10-11T14:51:48.033Z,13.60
2022-10-11T14:54:16.002Z,13.72
2022-10-11T14:56:42.383Z,13.58
2022-10-11T14:59:14.151Z,13.40
2022-10-11T15:01:40.602Z,13.07
2022-10-11T15:04:07.064Z,12.86
2022-10-11T15:06:38.567Z,12.72
2022-10-11T15:09:06.589Z,12.82
2022-10-11T15:11:36.359Z,13.20
2022-10-11T15:14:02.897Z,13.23
2022-10-11T15:16:29.301Z,13.30
2022-10-11T15:18:55.802Z,13.18
2022-10-11T15:21:24.998Z,13.23
2022-10-11T15:23:52.446Z,13.13
2022-10-11T15:26:21.850Z,13.15
2022-10-11T15:28:50.352Z,12.96
2022-10-11T15:31:18.065Z,13.12
2022-10-11T15:33:44.697Z,12.79
2022-10-11T15:36:13.612Z,12.82
2022-10-11T15:38:40.670Z,12.78
2022-10-11T15:41:08.400Z,12.82
2022-10-11T15:43:34.739Z,12.68
2022-10-11T15:46:02.592Z,12.83
2022-10-11T15:48:29.107Z,12.85
2022-10-11T15:50:55.780Z,13.02
2022-10-11T15:53:26.164Z,12.86
2022-10-11T15:55:54.545Z,12.87
2022-10-11T15:58:24.007Z,13.01
2022-10-11T16:00:56.363Z,12.79
2022-10-11T16:03:25.664Z,12.96
2022-10-11T16:05:53.476Z,12.83
2022-10-11T16:08:20.348Z,12.76
2022-10-11T16:10:46.744Z,12.57
2022-10-11T16:13:13.569Z,12.73
2022-10-11T16:15:41.843Z,12.74
2022-10-11T16:18:10.825Z,12.73
2022-10-11T16:20:42.716Z,12.59
2022-10-11T16:23:09.818Z,12.62
2022-10-11T16:25:36.636Z,12.60
2022-10-11T16:28:04.111Z,12.67
2022-10-11T16:30:30.457Z,12.49
2022-10-11T16:32:57.118Z,12.40
2022-10-11T16:35:23.510Z,12.51
2022-10-11T16:37:50.153Z,12.16
2022-10-11T16:40:19.003Z,12.54
2022-10-11T16:42:46.580Z,12.65
2022-10-11T16:45:15.538Z,12.04
2022-10-11T16:47:42.809Z,11.73
2022-10-11T16:50:10.240Z,11.50
2022-10-11T16:52:36.600Z,11.36
2022-10-11T16:55:03.507Z,11.44
2022-10-11T16:57:29.834Z,11.60
2022-10-11T16:59:56.446Z,11.52
2022-10-11T17:02:31.404Z,11.43
2022-10-11T17:04:58.787Z,11.48
2022-10-11T17:07:25.266Z,11.33
2022-10-11T17:09:51.722Z,11.37
2022-10-11T17:12:21.088Z,11.48
2022-10-11T17:14:48.185Z,11.39
2022-10-11T17:17:15.583Z,11.29
2022-10-11T17:19:45.386Z,11.27
2022-10-11T17:22:13.803Z,11.43
2022-10-11T17:24:40.335Z,11.38
2022-10-11T17:27:07.048Z,11.52
2022-10-11T17:29:33.729Z,11.25
2022-10-11T17:32:00.209Z,11.47
2022-10-11T17:34:26.651Z,11.37
2022-10-11T17:36:53.049Z,11.22
2022-10-11T17:39:22.318Z,11.40
2022-10-11T17:41:49.599Z,11.39
2022-10-11T17:44:18.957Z,11.07
2022-10-11T17:46:45.973Z,11.16
2022-10-11T17:49:13.166Z,11.08
2022-10-11T17:51:41.201Z,11.12
2022-10-11T17:54:12.379Z,11.20
2022-10-11T17:56:40.702Z,11.02
2022-10-11T17:59:08.553Z,10.94
2022-10-11T18:01:35.716Z,10.93
2022-10-11T18:04:04.840Z,10.97
2022-10-11T18:06:37.336Z,10.88
2022-10-11T18:09:04.219Z,10.86
2022-10-11T18:11:31.487Z,10.86
2022-10-11T18:13:59.089Z,10.76
2022-10-11T18:16:28.547Z,10.79
2022-10-11T18:18:57.220Z,10.85
2022-10-11T18:21:27.719Z,10.69
2022-10-11T18:24:02.197Z,11.00
2022-10-11T18:26:30.794Z,11.00
2022-10-11T18:28:58.009Z,10.90
2022-10-11T18:31:29.772Z,10.68
2022-10-11T18:33:56.656Z,10.79
2022-10-11T18:36:26.002Z,10.77
2022-10-11T18:38:54.963Z,10.32
2022-10-11T18:41:23.408Z,10.10
2022-10-11T18:43:54.726Z,9.99
2022-10-11T18:46:22.128Z,9.88
2022-10-11T18:48:51.100Z,9.70
2022-10-11T18:51:20.470Z,9.51
2022-10-11T18:53:47.627Z,9.66
2022-10-11T18:56:15.890Z,9.63
2022-10-11T18:58:44.273Z,9.65
2022-10-11T19:01:15.855Z,9.40
2022-10-11T19:03:43.471Z,9.42
2022-10-11T19:06:18.172Z,9.22
2022-10-11T19:08:49.912Z,9.04
2022-10-11T19:11:17.541Z,9.11
2022-10-11T19:13:44.121Z,9.09
2022-10-11T19:16:18.075Z,8.99
2022-10-11T19:18:44.686Z,8.90
2022-10-11T19:21:12.855Z,8.71
2022-10-11T19:23:42.445Z,8.83
2022-10-11T19:26:13.667Z,8.71
2022-10-11T19:28:40.361Z,8.76
2022-10-11T19:31:10.100Z,8.74
2022-10-11T19:33:36.908Z,8.72
2022-10-11T19:36:06.591Z,8.92
2022-10-11T19:38:34.702Z,9.32
2022-10-11T19:41:01.863Z,8.86
2022-10-11T19:43:28.444Z,8.77
2022-10-11T19:46:06.516Z,9.07
2022-10-11T19:48:36.712Z,8.72
2022-10-11T19:51:05.378Z,8.53
2022-10-11T19:53:32.169Z,8.39
2022-10-11T19:56:03.232Z,8.32
2022-10-11T19:58:30.185Z,8.23
2022-10-11T20:01:04.268Z,8.53
2022-10-11T20:03:31.166Z,8.37
2022-10-11T20:06:06.733Z,8.33
2022-10-11T20:08:33.949Z,8.18
2022-10-11T20:11:03.610Z,8.09
2022-10-11T20:13:34.706Z,8.06
2022-10-11T20:16:07.337Z,8.06
2022-10-11T20:18:33.745Z,8.07
2022-10-11T20:21:03.768Z,7.96
2022-10-11T20:23:31.363Z,8.00
2022-10-11T20:26:24.294Z,7.88
2022-10-11T20:28:55.930Z,7.82
2022-10-11T20:31:28.078Z,7.81
2022-10-11T20:34:03.440Z,7.87
2022-10-11T20:36:33.131Z,8.13
2022-10-11T20:39:03.065Z,8.28
2022-10-11T20:41:32.409Z,7.89
2022-10-11T20:44:00.596Z,7.73
2022-10-11T20:46:29.900Z,7.57
2022-10-11T20:49:01.900Z,7.60
2022-10-11T20:51:30.332Z,7.47
2022-10-11T20:53:56.938Z,7.28
2022-10-11T20:56:23.710Z,7.29
2022-10-11T20:58:52.663Z,7.41
2022-10-11T21:01:21.873Z,7.30
2022-10-11T21:03:48.407Z,7.28
2022-10-11T21:06:14.765Z,7.64
2022-10-11T21:08:41.601Z,8.12
2022-10-11T21:11:08.693Z,7.49
2022-10-11T21:13:35.300Z,7.36
2022-10-11T21:16:12.302Z,7.20
2022-10-11T21:18:38.918Z,7.08
2022-10-11T21:21:07.592Z,6.99
2022-10-11T21:23:34.516Z,7.01
2022-10-11T21:26:06.349Z,6.94
2022-10-11T21:28:33.284Z,6.96
2022-10-11T21:31:04.565Z,7.08
2022-10-11T21:33:31.724Z,6.80
2022-10-11T21:35:58.228Z,6.88
2022-10-11T21:38:24.584Z,6.78
2022-10-11T21:40:50.972Z,6.78
2022-10-11T21:43:17.362Z,6.78
2022-10-11T21:45:43.744Z,6.65
2022-10-11T21:48:10.282Z,6.65
2022-10-11T21:50:36.621Z,6.70
2022-10-11T21:53:03.020Z,6.55
2022-10-11T21:55:29.395Z,6.54
2022-10-11T21:57:55.970Z,6.48
2022-10-11T22:00:22.317Z,6.56
2022-10-11T22:02:48.736Z,6.91
2022-10-11T22:05:15.240Z,7.20
2022-10-11T22:07:41.855Z,6.75
2022-10-11T22:10:08.272Z,6.45
2022-10-11T22:12:35.027Z,6.38
2022-10-11T22:15:01.484Z,6.21
2022-10-11T22:17:28.005Z,6.18
2022-10-11T22:19:54.363Z,6.20
2022-10-11T22:22:20.751Z,6.18
2022-10-11T22:24:47.096Z,6.32
2022-10-11T22:27:13.607Z,6.21
2022-10-11T22:29:39.932Z,6.19
2022-10-11T22:32:06.301Z,6.24
2022-10-11T22:34:33.237Z,6.27
2022-10-11T22:36:59.616Z,6.74
2022-10-11T22:39:25.947Z,6.69
2022-10-11T22:41:53.836Z,6.64
2022-10-11T22:44:20.413Z,6.18
2022-10-11T22:46:46.914Z,6.19
2022-10-11T22:49:13.248Z,6.19
2022-10-11T22:51:39.752Z,6.10
2022-10-11T22:54:06.086Z,5.92
2022-10-11T22:56:32.628Z,6.51
2022-10-11T22:58:59.485Z,6.89
2022-10-11T23:01:25.859Z,6.24
2022-10-11T23:03:52.236Z,6.54
2022-10-11T23:06:18.866Z,6.88
2022-10-11T23:08:45.265Z,6.10
2022-10-11T23:11:13.812Z,5.98
2022-10-11T23:13:40.308Z,5.95
2022-10-11T23:16:08.819Z,5.88
2022-10-11T23:18:35.517Z,5.81
2022-10-11T23:21:02.642Z,6.04
2022-10-11T23:23:29.405Z,5.96
2022-10-11T23:26:11.385Z,5.81
2022-10-11T23:28:38.118Z,5.73
2022-10-11T23:31:11.942Z,6.24
2022-10-11T23:33:38.319Z,6.19
2022-10-11T23:36:05.487Z,5.87
2022-10-11T23:38:31.947Z,5.90
2022-10-11T23:40:58.464Z,5.93
2022-10-11T23:43:24.799Z,5.93
2022-10-11T23:45:51.288Z,6.08
2022-10-11T23:48:17.641Z,6.83
2022-10-11T23:50:44.236Z,6.49
2022-10-11T23:53:10.679Z,6.26
2022-10-11T23:55:37.059Z,6.26
2022-10-11T23:58:03.401Z,6.18
